Terminal Aerodrome Forecast
Issued by NWS

Home | Current Version | Previous Version | Text Only | Print | Product List | Glossary On
Versions: 1 2 3 4 5 6 7 8 9 10 11 12 13 14 15
776
FTAK31 PAJN 230528
TAFAWG
TAF
PAWG 230528Z 2306/2406 12004KT P6SM -SHRA FEW008 BKN025 OVC050
     FM230900 VRB03KT 4SM -RA BR BKN005 OVC010
     FM231800 13007KT 4SM -RA BR SCT005 OVC012
      AMD LTD TO CLD VIS AND WIND 2306/2315=

USA.gov is the U.S. government's official web portal to all federal, state and local government web resources and services.